sensor_id;sensor_type;location;lat;lon;timestamp;P1;durP1;ratioP1;P2;durP2;ratioP2
19828;SDS011;10075;50.924;4.396;2023-05-02T00:00:25;52.43;;;28.37;;
19828;SDS011;10075;50.924;4.396;2023-05-02T00:02:54;61.45;;;30.83;;
19828;SDS011;10075;50.924;4.396;2023-05-02T00:05:22;62.70;;;31.00;;
19828;SDS011;10075;50.924;4.396;2023-05-02T00:07:49;72.32;;;32.88;;
19828;SDS011;10075;50.924;4.396;2023-05-02T00:10:17;72.57;;;32.88;;
19828;SDS011;10075;50.924;4.396;2023-05-02T00:12:44;70.80;;;34.38;;
19828;SDS011;10075;50.924;4.396;2023-05-02T00:15:11;71.72;;;34.50;;
19828;SDS011;10075;50.924;4.396;2023-05-02T00:17:38;76.45;;;35.55;;
19828;SDS011;10075;50.924;4.396;2023-05-02T00:20:09;77.40;;;35.95;;
19828;SDS011;10075;50.924;4.396;2023-05-02T00:22:37;77.65;;;36.97;;
19828;SDS011;10075;50.924;4.396;2023-05-02T00:25:04;74.55;;;35.42;;
19828;SDS011;10075;50.924;4.396;2023-05-02T00:27:32;72.75;;;35.38;;
19828;SDS011;10075;50.924;4.396;2023-05-02T00:29:59;66.57;;;33.92;;
19828;SDS011;10075;50.924;4.396;2023-05-02T00:32:26;72.43;;;37.50;;
19828;SDS011;10075;50.924;4.396;2023-05-02T00:34:53;68.63;;;35.13;;
19828;SDS011;10075;50.924;4.396;2023-05-02T00:37:24;67.10;;;34.03;;
19828;SDS011;10075;50.924;4.396;2023-05-02T00:39:51;65.80;;;34.55;;
19828;SDS011;10075;50.924;4.396;2023-05-02T00:42:18;68.85;;;35.00;;
19828;SDS011;10075;50.924;4.396;2023-05-02T00:44:45;68.28;;;33.72;;
19828;SDS011;10075;50.924;4.396;2023-05-02T00:47:13;71.72;;;36.00;;
19828;SDS011;10075;50.924;4.396;2023-05-02T00:49:40;65.18;;;33.83;;
19828;SDS011;10075;50.924;4.396;2023-05-02T00:52:07;80.90;;;37.70;;
19828;SDS011;10075;50.924;4.396;2023-05-02T00:54:36;72.97;;;36.83;;
19828;SDS011;10075;50.924;4.396;2023-05-02T00:57:04;69.80;;;35.67;;
19828;SDS011;10075;50.924;4.396;2023-05-02T00:59:31;67.35;;;35.10;;
19828;SDS011;10075;50.924;4.396;2023-05-02T01:02:03;68.50;;;36.25;;
19828;SDS011;10075;50.924;4.396;2023-05-02T01:04:39;66.60;;;34.70;;
19828;SDS011;10075;50.924;4.396;2023-05-02T01:07:18;73.53;;;37.72;;
19828;SDS011;10075;50.924;4.396;2023-05-02T01:10:00;67.60;;;35.80;;
19828;SDS011;10075;50.924;4.396;2023-05-02T01:12:37;79.38;;;37.10;;
19828;SDS011;10075;50.924;4.396;2023-05-02T01:15:10;70.35;;;36.85;;
19828;SDS011;10075;50.924;4.396;2023-05-02T01:17:41;71.55;;;35.88;;
19828;SDS011;10075;50.924;4.396;2023-05-02T01:20:11;70.63;;;35.97;;
19828;SDS011;10075;50.924;4.396;2023-05-02T01:22:41;70.93;;;36.03;;
19828;SDS011;10075;50.924;4.396;2023-05-02T01:25:13;68.95;;;36.55;;
19828;SDS011;10075;50.924;4.396;2023-05-02T01:27:50;68.55;;;37.50;;
19828;SDS011;10075;50.924;4.396;2023-05-02T01:30:25;71.82;;;36.10;;
19828;SDS011;10075;50.924;4.396;2023-05-02T01:32:55;69.00;;;35.42;;
19828;SDS011;10075;50.924;4.396;2023-05-02T01:35:23;73.32;;;37.72;;
19828;SDS011;10075;50.924;4.396;2023-05-02T01:37:52;73.93;;;37.45;;
19828;SDS011;10075;50.924;4.396;2023-05-02T01:40:21;73.10;;;38.95;;
19828;SDS011;10075;50.924;4.396;2023-05-02T01:42:50;92.97;;;42.05;;
19828;SDS011;10075;50.924;4.396;2023-05-02T01:45:19;82.18;;;40.08;;
19828;SDS011;10075;50.924;4.396;2023-05-02T01:47:48;75.70;;;37.97;;
19828;SDS011;10075;50.924;4.396;2023-05-02T01:50:16;69.05;;;37.42;;
19828;SDS011;10075;50.924;4.396;2023-05-02T01:52:45;86.47;;;41.88;;
19828;SDS011;10075;50.924;4.396;2023-05-02T01:55:14;77.47;;;39.85;;
19828;SDS011;10075;50.924;4.396;2023-05-02T01:57:43;79.68;;;38.72;;
19828;SDS011;10075;50.924;4.396;2023-05-02T02:00:12;82.22;;;38.33;;
19828;SDS011;10075;50.924;4.396;2023-05-02T02:02:42;79.18;;;37.95;;
19828;SDS011;10075;50.924;4.396;2023-05-02T02:05:13;77.13;;;37.67;;
19828;SDS011;10075;50.924;4.396;2023-05-02T02:07:41;77.53;;;39.90;;
19828;SDS011;10075;50.924;4.396;2023-05-02T02:10:09;74.78;;;36.47;;
19828;SDS011;10075;50.924;4.396;2023-05-02T02:12:37;82.53;;;39.50;;
19828;SDS011;10075;50.924;4.396;2023-05-02T02:15:08;75.70;;;37.60;;
19828;SDS011;10075;50.924;4.396;2023-05-02T02:17:42;79.25;;;39.03;;
19828;SDS011;10075;50.924;4.396;2023-05-02T02:20:15;74.50;;;36.78;;
19828;SDS011;10075;50.924;4.396;2023-05-02T02:22:44;69.93;;;35.67;;
19828;SDS011;10075;50.924;4.396;2023-05-02T02:25:13;70.18;;;36.97;;
19828;SDS011;10075;50.924;4.396;2023-05-02T02:27:41;74.18;;;36.55;;
19828;SDS011;10075;50.924;4.396;2023-05-02T02:30:09;72.47;;;37.95;;
19828;SDS011;10075;50.924;4.396;2023-05-02T02:32:36;62.92;;;32.72;;
19828;SDS011;10075;50.924;4.396;2023-05-02T02:35:04;74.70;;;36.93;;
19828;SDS011;10075;50.924;4.396;2023-05-02T02:37:34;67.53;;;32.03;;
19828;SDS011;10075;50.924;4.396;2023-05-02T02:40:11;75.87;;;35.70;;
19828;SDS011;10075;50.924;4.396;2023-05-02T02:42:46;81.40;;;38.55;;
19828;SDS011;10075;50.924;4.396;2023-05-02T02:45:24;77.90;;;36.75;;
19828;SDS011;10075;50.924;4.396;2023-05-02T02:47:58;70.80;;;35.42;;
19828;SDS011;10075;50.924;4.396;2023-05-02T02:50:37;65.00;;;33.35;;
19828;SDS011;10075;50.924;4.396;2023-05-02T02:53:17;69.65;;;34.90;;
19828;SDS011;10075;50.924;4.396;2023-05-02T02:55:55;67.00;;;33.30;;
19828;SDS011;10075;50.924;4.396;2023-05-02T02:58:28;64.57;;;34.53;;
19828;SDS011;10075;50.924;4.396;2023-05-02T03:01:01;71.35;;;34.67;;
19828;SDS011;10075;50.924;4.396;2023-05-02T03:03:30;60.42;;;32.03;;
19828;SDS011;10075;50.924;4.396;2023-05-02T03:05:58;65.30;;;35.07;;
19828;SDS011;10075;50.924;4.396;2023-05-02T03:08:27;66.77;;;34.67;;
19828;SDS011;10075;50.924;4.396;2023-05-02T03:11:04;70.88;;;35.85;;
19828;SDS011;10075;50.924;4.396;2023-05-02T03:13:32;76.15;;;36.17;;
19828;SDS011;10075;50.924;4.396;2023-05-02T03:16:11;76.18;;;36.88;;
19828;SDS011;10075;50.924;4.396;2023-05-02T03:18:54;83.95;;;37.35;;
19828;SDS011;10075;50.924;4.396;2023-05-02T03:21:21;78.50;;;37.83;;
19828;SDS011;10075;50.924;4.396;2023-05-02T03:23:50;73.97;;;36.93;;
19828;SDS011;10075;50.924;4.396;2023-05-02T03:26:17;86.20;;;38.05;;
19828;SDS011;10075;50.924;4.396;2023-05-02T03:28:45;85.80;;;40.30;;
19828;SDS011;10075;50.924;4.396;2023-05-02T03:31:12;77.83;;;37.67;;
19828;SDS011;10075;50.924;4.396;2023-05-02T03:33:39;82.95;;;37.33;;
19828;SDS011;10075;50.924;4.396;2023-05-02T03:36:06;79.97;;;36.22;;
19828;SDS011;10075;50.924;4.396;2023-05-02T03:38:33;79.07;;;37.05;;
19828;SDS011;10075;50.924;4.396;2023-05-02T03:41:02;85.37;;;38.90;;
19828;SDS011;10075;50.924;4.396;2023-05-02T03:43:30;84.33;;;37.53;;
19828;SDS011;10075;50.924;4.396;2023-05-02T03:45:57;87.83;;;37.80;;
19828;SDS011;10075;50.924;4.396;2023-05-02T03:48:31;76.33;;;36.80;;
19828;SDS011;10075;50.924;4.396;2023-05-02T03:50:57;83.97;;;36.70;;
19828;SDS011;10075;50.924;4.396;2023-05-02T03:53:24;85.37;;;37.50;;
19828;SDS011;10075;50.924;4.396;2023-05-02T03:55:51;88.63;;;39.05;;
19828;SDS011;10075;50.924;4.396;2023-05-02T03:58:20;81.18;;;38.47;;
19828;SDS011;10075;50.924;4.396;2023-05-02T04:00:47;90.72;;;37.65;;
19828;SDS011;10075;50.924;4.396;2023-05-02T04:03:14;97.47;;;39.53;;
19828;SDS011;10075;50.924;4.396;2023-05-02T04:05:41;79.10;;;38.15;;
19828;SDS011;10075;50.924;4.396;2023-05-02T04:08:08;101.60;;;42.30;;
19828;SDS011;10075;50.924;4.396;2023-05-02T04:10:35;90.28;;;38.15;;
19828;SDS011;10075;50.924;4.396;2023-05-02T04:13:02;110.43;;;41.30;;
19828;SDS011;10075;50.924;4.396;2023-05-02T04:15:31;102.30;;;41.23;;
19828;SDS011;10075;50.924;4.396;2023-05-02T04:17:58;97.57;;;40.95;;
19828;SDS011;10075;50.924;4.396;2023-05-02T04:20:25;84.30;;;37.97;;
19828;SDS011;10075;50.924;4.396;2023-05-02T04:22:52;104.25;;;43.13;;
19828;SDS011;10075;50.924;4.396;2023-05-02T04:25:19;78.53;;;38.77;;
19828;SDS011;10075;50.924;4.396;2023-05-02T04:27:46;95.25;;;39.50;;
19828;SDS011;10075;50.924;4.396;2023-05-02T04:30:13;92.00;;;39.58;;
19828;SDS011;10075;50.924;4.396;2023-05-02T04:32:41;100.07;;;41.53;;
19828;SDS011;10075;50.924;4.396;2023-05-02T04:35:08;101.70;;;42.50;;
19828;SDS011;10075;50.924;4.396;2023-05-02T04:37:35;84.17;;;39.13;;
19828;SDS011;10075;50.924;4.396;2023-05-02T04:40:03;94.33;;;40.83;;
19828;SDS011;10075;50.924;4.396;2023-05-02T04:42:30;79.60;;;38.50;;
19828;SDS011;10075;50.924;4.396;2023-05-02T04:44:57;72.70;;;37.90;;
19828;SDS011;10075;50.924;4.396;2023-05-02T04:47:24;97.15;;;40.55;;
19828;SDS011;10075;50.924;4.396;2023-05-02T04:49:53;80.18;;;38.20;;
19828;SDS011;10075;50.924;4.396;2023-05-02T04:52:20;72.60;;;36.60;;
19828;SDS011;10075;50.924;4.396;2023-05-02T04:54:47;87.47;;;40.85;;
19828;SDS011;10075;50.924;4.396;2023-05-02T04:57:14;75.35;;;37.53;;
19828;SDS011;10075;50.924;4.396;2023-05-02T04:59:41;77.77;;;38.93;;
19828;SDS011;10075;50.924;4.396;2023-05-02T05:02:07;78.20;;;37.67;;
19828;SDS011;10075;50.924;4.396;2023-05-02T05:04:36;75.30;;;37.67;;
19828;SDS011;10075;50.924;4.396;2023-05-02T05:07:04;80.93;;;39.15;;
19828;SDS011;10075;50.924;4.396;2023-05-02T05:09:31;72.70;;;36.13;;
19828;SDS011;10075;50.924;4.396;2023-05-02T05:11:58;74.13;;;38.42;;
19828;SDS011;10075;50.924;4.396;2023-05-02T05:14:26;73.63;;;36.08;;
19828;SDS011;10075;50.924;4.396;2023-05-02T05:16:53;65.57;;;34.67;;
19828;SDS011;10075;50.924;4.396;2023-05-02T05:19:20;64.63;;;33.87;;
19828;SDS011;10075;50.924;4.396;2023-05-02T05:21:47;69.63;;;35.80;;
19828;SDS011;10075;50.924;4.396;2023-05-02T05:24:15;71.07;;;34.10;;
19828;SDS011;10075;50.924;4.396;2023-05-02T05:26:42;61.70;;;32.92;;
19828;SDS011;10075;50.924;4.396;2023-05-02T05:29:09;61.55;;;34.08;;
19828;SDS011;10075;50.924;4.396;2023-05-02T05:31:36;64.22;;;34.33;;
19828;SDS011;10075;50.924;4.396;2023-05-02T05:34:03;67.38;;;33.70;;
19828;SDS011;10075;50.924;4.396;2023-05-02T05:36:31;60.47;;;31.90;;
19828;SDS011;10075;50.924;4.396;2023-05-02T05:38:58;61.80;;;31.00;;
19828;SDS011;10075;50.924;4.396;2023-05-02T05:41:26;55.72;;;30.33;;
19828;SDS011;10075;50.924;4.396;2023-05-02T05:43:54;55.28;;;29.85;;
19828;SDS011;10075;50.924;4.396;2023-05-02T05:46:22;55.40;;;30.88;;
19828;SDS011;10075;50.924;4.396;2023-05-02T05:48:49;51.90;;;29.52;;
19828;SDS011;10075;50.924;4.396;2023-05-02T05:51:16;48.13;;;28.92;;
19828;SDS011;10075;50.924;4.396;2023-05-02T05:53:42;47.88;;;28.30;;
19828;SDS011;10075;50.924;4.396;2023-05-02T05:56:10;51.97;;;28.13;;
19828;SDS011;10075;50.924;4.396;2023-05-02T05:58:39;50.83;;;27.48;;
19828;SDS011;10075;50.924;4.396;2023-05-02T06:01:08;53.05;;;25.67;;
19828;SDS011;10075;50.924;4.396;2023-05-02T06:03:35;46.67;;;25.60;;
19828;SDS011;10075;50.924;4.396;2023-05-02T06:06:02;52.78;;;27.73;;
19828;SDS011;10075;50.924;4.396;2023-05-02T06:08:30;53.35;;;29.35;;
19828;SDS011;10075;50.924;4.396;2023-05-02T06:10:56;55.40;;;28.73;;
19828;SDS011;10075;50.924;4.396;2023-05-02T06:13:24;52.67;;;27.42;;
19828;SDS011;10075;50.924;4.396;2023-05-02T06:15:53;49.63;;;27.73;;
19828;SDS011;10075;50.924;4.396;2023-05-02T06:18:20;47.97;;;27.38;;
19828;SDS011;10075;50.924;4.396;2023-05-02T06:20:46;50.25;;;28.92;;
19828;SDS011;10075;50.924;4.396;2023-05-02T06:23:14;45.85;;;27.15;;
19828;SDS011;10075;50.924;4.396;2023-05-02T06:25:41;42.92;;;27.40;;
19828;SDS011;10075;50.924;4.396;2023-05-02T06:28:08;40.70;;;25.20;;
19828;SDS011;10075;50.924;4.396;2023-05-02T06:30:35;38.00;;;25.33;;
19828;SDS011;10075;50.924;4.396;2023-05-02T06:33:04;39.58;;;25.83;;
19828;SDS011;10075;50.924;4.396;2023-05-02T06:35:31;39.87;;;25.73;;
19828;SDS011;10075;50.924;4.396;2023-05-02T06:37:58;43.45;;;27.85;;
19828;SDS011;10075;50.924;4.396;2023-05-02T06:40:25;44.65;;;28.90;;
19828;SDS011;10075;50.924;4.396;2023-05-02T06:42:52;38.35;;;27.60;;
19828;SDS011;10075;50.924;4.396;2023-05-02T06:45:19;38.88;;;27.45;;
19828;SDS011;10075;50.924;4.396;2023-05-02T06:47:46;41.97;;;28.80;;
19828;SDS011;10075;50.924;4.396;2023-05-02T06:50:15;39.95;;;28.63;;
19828;SDS011;10075;50.924;4.396;2023-05-02T06:52:42;43.53;;;29.15;;
19828;SDS011;10075;50.924;4.396;2023-05-02T06:55:09;37.65;;;26.88;;
19828;SDS011;10075;50.924;4.396;2023-05-02T06:57:36;38.97;;;25.27;;
19828;SDS011;10075;50.924;4.396;2023-05-02T07:00:03;34.67;;;25.48;;
19828;SDS011;10075;50.924;4.396;2023-05-02T07:02:31;34.03;;;24.23;;
19828;SDS011;10075;50.924;4.396;2023-05-02T07:04:58;36.97;;;23.60;;
19828;SDS011;10075;50.924;4.396;2023-05-02T07:07:26;31.80;;;23.17;;
19828;SDS011;10075;50.924;4.396;2023-05-02T07:09:53;30.92;;;21.23;;
19828;SDS011;10075;50.924;4.396;2023-05-02T07:12:20;36.97;;;20.65;;
19828;SDS011;10075;50.924;4.396;2023-05-02T07:14:47;34.15;;;19.05;;
19828;SDS011;10075;50.924;4.396;2023-05-02T07:17:15;32.65;;;18.92;;
19828;SDS011;10075;50.924;4.396;2023-05-02T07:19:42;26.65;;;18.52;;
19828;SDS011;10075;50.924;4.396;2023-05-02T07:22:12;27.38;;;18.13;;
19828;SDS011;10075;50.924;4.396;2023-05-02T07:24:41;27.15;;;18.85;;
19828;SDS011;10075;50.924;4.396;2023-05-02T07:27:11;24.90;;;16.92;;
19828;SDS011;10075;50.924;4.396;2023-05-02T07:29:38;23.05;;;16.35;;
19828;SDS011;10075;50.924;4.396;2023-05-02T07:32:06;20.55;;;13.82;;
19828;SDS011;10075;50.924;4.396;2023-05-02T07:34:33;20.20;;;12.93;;
19828;SDS011;10075;50.924;4.396;2023-05-02T07:37:00;20.20;;;13.75;;
19828;SDS011;10075;50.924;4.396;2023-05-02T07:39:27;15.60;;;12.05;;
19828;SDS011;10075;50.924;4.396;2023-05-02T07:41:56;13.82;;;10.98;;
19828;SDS011;10075;50.924;4.396;2023-05-02T07:44:23;12.93;;;9.80;;
19828;SDS011;10075;50.924;4.396;2023-05-02T07:46:51;13.82;;;9.77;;
19828;SDS011;10075;50.924;4.396;2023-05-02T07:49:18;13.85;;;9.75;;
19828;SDS011;10075;50.924;4.396;2023-05-02T07:51:45;14.55;;;9.30;;
19828;SDS011;10075;50.924;4.396;2023-05-02T07:54:15;16.95;;;7.82;;
19828;SDS011;10075;50.924;4.396;2023-05-02T07:56:42;12.88;;;8.52;;
19828;SDS011;10075;50.924;4.396;2023-05-02T07:59:11;14.05;;;7.72;;
19828;SDS011;10075;50.924;4.396;2023-05-02T08:01:39;12.52;;;7.20;;
19828;SDS011;10075;50.924;4.396;2023-05-02T08:04:07;8.57;;;5.28;;
19828;SDS011;10075;50.924;4.396;2023-05-02T08:06:35;10.10;;;4.85;;
19828;SDS011;10075;50.924;4.396;2023-05-02T08:09:02;14.27;;;5.57;;
19828;SDS011;10075;50.924;4.396;2023-05-02T08:11:31;8.45;;;5.13;;
19828;SDS011;10075;50.924;4.396;2023-05-02T08:14:02;9.68;;;5.45;;
19828;SDS011;10075;50.924;4.396;2023-05-02T08:16:30;6.47;;;3.20;;
19828;SDS011;10075;50.924;4.396;2023-05-02T08:18:57;8.65;;;3.08;;
19828;SDS011;10075;50.924;4.396;2023-05-02T08:21:25;6.88;;;2.90;;
19828;SDS011;10075;50.924;4.396;2023-05-02T08:23:56;6.80;;;2.85;;
19828;SDS011;10075;50.924;4.396;2023-05-02T08:26:23;7.50;;;3.05;;
19828;SDS011;10075;50.924;4.396;2023-05-02T08:28:51;6.93;;;3.20;;
19828;SDS011;10075;50.924;4.396;2023-05-02T08:31:18;5.20;;;2.97;;
19828;SDS011;10075;50.924;4.396;2023-05-02T08:33:47;6.65;;;3.10;;
19828;SDS011;10075;50.924;4.396;2023-05-02T08:36:15;8.43;;;3.50;;
19828;SDS011;10075;50.924;4.396;2023-05-02T08:38:43;8.57;;;4.20;;
19828;SDS011;10075;50.924;4.396;2023-05-02T08:41:11;11.30;;;4.72;;
19828;SDS011;10075;50.924;4.396;2023-05-02T08:43:39;11.35;;;4.88;;
19828;SDS011;10075;50.924;4.396;2023-05-02T08:46:06;10.85;;;4.45;;
19828;SDS011;10075;50.924;4.396;2023-05-02T08:48:34;8.90;;;4.50;;
19828;SDS011;10075;50.924;4.396;2023-05-02T08:51:04;10.80;;;4.63;;
19828;SDS011;10075;50.924;4.396;2023-05-02T08:53:35;10.10;;;5.00;;
19828;SDS011;10075;50.924;4.396;2023-05-02T08:56:03;10.05;;;4.90;;
19828;SDS011;10075;50.924;4.396;2023-05-02T08:58:31;11.18;;;5.30;;
19828;SDS011;10075;50.924;4.396;2023-05-02T09:00:59;7.80;;;4.55;;
19828;SDS011;10075;50.924;4.396;2023-05-02T09:03:28;9.35;;;4.70;;
19828;SDS011;10075;50.924;4.396;2023-05-02T09:06:02;7.72;;;5.38;;
19828;SDS011;10075;50.924;4.396;2023-05-02T09:08:32;9.05;;;4.30;;
19828;SDS011;10075;50.924;4.396;2023-05-02T09:11:00;8.52;;;6.28;;
19828;SDS011;10075;50.924;4.396;2023-05-02T09:13:28;10.52;;;6.40;;
19828;SDS011;10075;50.924;4.396;2023-05-02T09:15:56;9.63;;;5.75;;
19828;SDS011;10075;50.924;4.396;2023-05-02T09:18:27;8.27;;;5.97;;
19828;SDS011;10075;50.924;4.396;2023-05-02T09:20:57;11.27;;;6.57;;
19828;SDS011;10075;50.924;4.396;2023-05-02T09:23:33;8.25;;;5.82;;
19828;SDS011;10075;50.924;4.396;2023-05-02T09:26:09;9.82;;;5.25;;
19828;SDS011;10075;50.924;4.396;2023-05-02T09:28:37;5.72;;;3.47;;
19828;SDS011;10075;50.924;4.396;2023-05-02T09:31:06;8.32;;;3.70;;
19828;SDS011;10075;50.924;4.396;2023-05-02T09:33:34;7.53;;;4.55;;
19828;SDS011;10075;50.924;4.396;2023-05-02T09:36:01;11.68;;;4.88;;
19828;SDS011;10075;50.924;4.396;2023-05-02T09:38:29;7.65;;;6.80;;
19828;SDS011;10075;50.924;4.396;2023-05-02T09:40:57;7.00;;;5.55;;
19828;SDS011;10075;50.924;4.396;2023-05-02T09:43:27;6.10;;;4.47;;
19828;SDS011;10075;50.924;4.396;2023-05-02T09:45:55;8.15;;;4.07;;
19828;SDS011;10075;50.924;4.396;2023-05-02T09:48:24;9.90;;;5.57;;
19828;SDS011;10075;50.924;4.396;2023-05-02T09:50:52;7.15;;;4.78;;
19828;SDS011;10075;50.924;4.396;2023-05-02T09:53:19;8.55;;;3.90;;
19828;SDS011;10075;50.924;4.396;2023-05-02T09:55:47;7.07;;;4.05;;
19828;SDS011;10075;50.924;4.396;2023-05-02T09:58:25;7.68;;;4.07;;
19828;SDS011;10075;50.924;4.396;2023-05-02T10:00:52;9.02;;;3.90;;
19828;SDS011;10075;50.924;4.396;2023-05-02T10:03:20;6.65;;;3.40;;
19828;SDS011;10075;50.924;4.396;2023-05-02T10:05:49;7.20;;;3.15;;
19828;SDS011;10075;50.924;4.396;2023-05-02T10:08:20;8.75;;;2.97;;
19828;SDS011;10075;50.924;4.396;2023-05-02T10:10:51;9.25;;;3.50;;
19828;SDS011;10075;50.924;4.396;2023-05-02T10:13:20;8.48;;;3.88;;
19828;SDS011;10075;50.924;4.396;2023-05-02T10:15:55;13.45;;;3.90;;
19828;SDS011;10075;50.924;4.396;2023-05-02T10:18:26;6.07;;;3.65;;
19828;SDS011;10075;50.924;4.396;2023-05-02T10:20:56;6.47;;;3.95;;
19828;SDS011;10075;50.924;4.396;2023-05-02T10:23:27;11.35;;;3.78;;
19828;SDS011;10075;50.924;4.396;2023-05-02T10:25:56;9.55;;;4.20;;
19828;SDS011;10075;50.924;4.396;2023-05-02T10:28:24;7.45;;;4.32;;
19828;SDS011;10075;50.924;4.396;2023-05-02T10:30:53;8.80;;;4.18;;
19828;SDS011;10075;50.924;4.396;2023-05-02T10:33:21;8.40;;;4.43;;
19828;SDS011;10075;50.924;4.396;2023-05-02T10:35:48;7.53;;;4.57;;
19828;SDS011;10075;50.924;4.396;2023-05-02T10:38:18;8.32;;;4.38;;
19828;SDS011;10075;50.924;4.396;2023-05-02T10:40:48;7.28;;;4.43;;
19828;SDS011;10075;50.924;4.396;2023-05-02T10:43:20;10.77;;;3.70;;
19828;SDS011;10075;50.924;4.396;2023-05-02T10:45:53;8.20;;;4.25;;
19828;SDS011;10075;50.924;4.396;2023-05-02T10:48:21;13.55;;;4.78;;
19828;SDS011;10075;50.924;4.396;2023-05-02T10:50:51;7.88;;;4.07;;
19828;SDS011;10075;50.924;4.396;2023-05-02T10:53:26;12.57;;;5.10;;
19828;SDS011;10075;50.924;4.396;2023-05-02T10:56:16;7.40;;;4.82;;
19828;SDS011;10075;50.924;4.396;2023-05-02T10:58:45;11.38;;;4.90;;
19828;SDS011;10075;50.924;4.396;2023-05-02T11:04:13;10.85;;;4.68;;
19828;SDS011;10075;50.924;4.396;2023-05-02T11:09:40;9.93;;;5.07;;
19828;SDS011;10075;50.924;4.396;2023-05-02T11:12:07;11.90;;;5.25;;
19828;SDS011;10075;50.924;4.396;2023-05-02T11:14:41;10.40;;;5.20;;
19828;SDS011;10075;50.924;4.396;2023-05-02T11:17:16;8.52;;;4.72;;
19828;SDS011;10075;50.924;4.396;2023-05-02T11:22:49;9.70;;;6.28;;
19828;SDS011;10075;50.924;4.396;2023-05-02T11:25:33;14.63;;;5.47;;
19828;SDS011;10075;50.924;4.396;2023-05-02T11:28:02;10.10;;;5.22;;
19828;SDS011;10075;50.924;4.396;2023-05-02T11:30:38;13.45;;;5.65;;
19828;SDS011;10075;50.924;4.396;2023-05-02T11:33:15;8.82;;;4.47;;
19828;SDS011;10075;50.924;4.396;2023-05-02T11:35:45;15.98;;;5.32;;
19828;SDS011;10075;50.924;4.396;2023-05-02T11:38:14;13.40;;;4.78;;
19828;SDS011;10075;50.924;4.396;2023-05-02T11:40:52;10.73;;;3.58;;
19828;SDS011;10075;50.924;4.396;2023-05-02T11:43:24;10.32;;;4.15;;
19828;SDS011;10075;50.924;4.396;2023-05-02T11:45:52;9.10;;;4.68;;
19828;SDS011;10075;50.924;4.396;2023-05-02T11:48:22;7.10;;;4.18;;
19828;SDS011;10075;50.924;4.396;2023-05-02T11:50:52;7.85;;;3.67;;
19828;SDS011;10075;50.924;4.396;2023-05-02T11:53:20;7.93;;;3.70;;
19828;SDS011;10075;50.924;4.396;2023-05-02T11:55:49;10.52;;;4.22;;
19828;SDS011;10075;50.924;4.396;2023-05-02T11:58:17;11.07;;;3.85;;
19828;SDS011;10075;50.924;4.396;2023-05-02T12:00:46;7.55;;;3.67;;
19828;SDS011;10075;50.924;4.396;2023-05-02T12:03:25;8.27;;;4.22;;
19828;SDS011;10075;50.924;4.396;2023-05-02T12:05:54;8.73;;;4.18;;
19828;SDS011;10075;50.924;4.396;2023-05-02T12:08:22;15.65;;;4.60;;
19828;SDS011;10075;50.924;4.396;2023-05-02T12:10:52;14.43;;;4.72;;
19828;SDS011;10075;50.924;4.396;2023-05-02T12:13:20;11.55;;;4.00;;
19828;SDS011;10075;50.924;4.396;2023-05-02T12:15:48;9.82;;;4.60;;
19828;SDS011;10075;50.924;4.396;2023-05-02T12:18:17;10.35;;;4.13;;
19828;SDS011;10075;50.924;4.396;2023-05-02T12:20:49;10.13;;;3.80;;
19828;SDS011;10075;50.924;4.396;2023-05-02T12:23:17;9.43;;;4.18;;
19828;SDS011;10075;50.924;4.396;2023-05-02T12:25:46;8.07;;;3.75;;
19828;SDS011;10075;50.924;4.396;2023-05-02T12:28:15;11.40;;;4.32;;
19828;SDS011;10075;50.924;4.396;2023-05-02T12:30:46;9.57;;;4.22;;
19828;SDS011;10075;50.924;4.396;2023-05-02T12:33:14;8.35;;;4.28;;
19828;SDS011;10075;50.924;4.396;2023-05-02T12:35:42;12.30;;;4.45;;
19828;SDS011;10075;50.924;4.396;2023-05-02T12:38:14;11.18;;;5.13;;
19828;SDS011;10075;50.924;4.396;2023-05-02T12:40:45;8.43;;;4.97;;
19828;SDS011;10075;50.924;4.396;2023-05-02T12:43:14;10.20;;;4.90;;
19828;SDS011;10075;50.924;4.396;2023-05-02T12:45:41;9.07;;;4.57;;
19828;SDS011;10075;50.924;4.396;2023-05-02T12:48:22;11.25;;;4.10;;
19828;SDS011;10075;50.924;4.396;2023-05-02T12:50:50;4.68;;;2.90;;
19828;SDS011;10075;50.924;4.396;2023-05-02T12:53:38;8.15;;;3.70;;
19828;SDS011;10075;50.924;4.396;2023-05-02T12:56:07;8.30;;;3.30;;
19828;SDS011;10075;50.924;4.396;2023-05-02T12:58:41;6.35;;;3.22;;
19828;SDS011;10075;50.924;4.396;2023-05-02T13:01:10;13.82;;;4.30;;
19828;SDS011;10075;50.924;4.396;2023-05-02T13:03:37;9.07;;;4.47;;
19828;SDS011;10075;50.924;4.396;2023-05-02T13:06:04;7.80;;;3.63;;
19828;SDS011;10075;50.924;4.396;2023-05-02T13:08:32;10.50;;;3.80;;
19828;SDS011;10075;50.924;4.396;2023-05-02T13:11:01;6.30;;;3.63;;
19828;SDS011;10075;50.924;4.396;2023-05-02T13:13:29;6.60;;;3.53;;
19828;SDS011;10075;50.924;4.396;2023-05-02T13:15:59;5.55;;;3.28;;
19828;SDS011;10075;50.924;4.396;2023-05-02T13:18:26;6.75;;;3.42;;
19828;SDS011;10075;50.924;4.396;2023-05-02T13:20:53;14.55;;;4.05;;
19828;SDS011;10075;50.924;4.396;2023-05-02T13:23:20;11.00;;;4.93;;
19828;SDS011;10075;50.924;4.396;2023-05-02T13:25:47;8.27;;;4.82;;
19828;SDS011;10075;50.924;4.396;2023-05-02T13:28:16;9.52;;;5.10;;
19828;SDS011;10075;50.924;4.396;2023-05-02T13:30:43;8.27;;;3.63;;
19828;SDS011;10075;50.924;4.396;2023-05-02T13:33:10;10.23;;;4.25;;
19828;SDS011;10075;50.924;4.396;2023-05-02T13:35:37;10.88;;;4.47;;
19828;SDS011;10075;50.924;4.396;2023-05-02T13:38:04;8.45;;;3.95;;
19828;SDS011;10075;50.924;4.396;2023-05-02T13:40:31;9.60;;;4.15;;
19828;SDS011;10075;50.924;4.396;2023-05-02T13:42:58;10.00;;;4.25;;
19828;SDS011;10075;50.924;4.396;2023-05-02T13:45:27;10.82;;;3.33;;
19828;SDS011;10075;50.924;4.396;2023-05-02T13:47:54;7.22;;;3.83;;
19828;SDS011;10075;50.924;4.396;2023-05-02T13:50:21;12.27;;;4.30;;
19828;SDS011;10075;50.924;4.396;2023-05-02T13:52:48;4.95;;;2.90;;
19828;SDS011;10075;50.924;4.396;2023-05-02T13:55:15;6.80;;;3.17;;
19828;SDS011;10075;50.924;4.396;2023-05-02T13:57:42;9.18;;;4.00;;
19828;SDS011;10075;50.924;4.396;2023-05-02T14:00:09;12.02;;;4.47;;
19828;SDS011;10075;50.924;4.396;2023-05-02T14:02:39;9.32;;;4.25;;
19828;SDS011;10075;50.924;4.396;2023-05-02T14:05:06;8.45;;;3.63;;
19828;SDS011;10075;50.924;4.396;2023-05-02T14:07:34;8.45;;;3.05;;
19828;SDS011;10075;50.924;4.396;2023-05-02T14:10:01;11.80;;;4.32;;
19828;SDS011;10075;50.924;4.396;2023-05-02T14:12:28;10.40;;;3.42;;
19828;SDS011;10075;50.924;4.396;2023-05-02T14:14:55;10.48;;;4.38;;
19828;SDS011;10075;50.924;4.396;2023-05-02T14:17:23;8.48;;;3.80;;
19828;SDS011;10075;50.924;4.396;2023-05-02T14:19:52;9.35;;;4.22;;
19828;SDS011;10075;50.924;4.396;2023-05-02T14:22:21;8.48;;;4.40;;
19828;SDS011;10075;50.924;4.396;2023-05-02T14:24:51;10.80;;;3.60;;
19828;SDS011;10075;50.924;4.396;2023-05-02T14:27:18;7.38;;;3.50;;
19828;SDS011;10075;50.924;4.396;2023-05-02T14:29:47;9.73;;;3.63;;
19828;SDS011;10075;50.924;4.396;2023-05-02T14:32:14;9.60;;;3.40;;
19828;SDS011;10075;50.924;4.396;2023-05-02T14:34:41;9.23;;;3.70;;
19828;SDS011;10075;50.924;4.396;2023-05-02T14:37:10;7.95;;;3.90;;
19828;SDS011;10075;50.924;4.396;2023-05-02T14:39:37;7.22;;;3.60;;
19828;SDS011;10075;50.924;4.396;2023-05-02T14:42:06;11.32;;;4.07;;
19828;SDS011;10075;50.924;4.396;2023-05-02T14:44:33;7.80;;;4.32;;
19828;SDS011;10075;50.924;4.396;2023-05-02T14:47:00;10.40;;;4.78;;
19828;SDS011;10075;50.924;4.396;2023-05-02T14:49:28;9.10;;;3.95;;